AirNav   Everest Fuels
 
 1544 users online  

KLOT Lewis University Airport
Chicago/Romeoville, Illinois, USA

GOING TO CHICAGO/ROMEOVILLE?


FAA INFORMATION EFFECTIVE 07 NOVEMBER 2019

Location

FAA Identifier: LOT
Lat/Long: 41-36-29.1490N 088-05-47.0030W
41-36.485817N 088-05.783383W
41.6080969,-88.0963897
(estimated)
Elevation: 679 ft. / 207.0 m (surveyed)
Variation: 02W (2000)
From city: 20 miles SW of central business district of the associated city
Time zone: UTC -6 (UTC -5 during Daylight Saving Time)
Zip code: 60441

Airport Operations

Airport use: Open to the public
Activation date: 04/1940
Control tower: no
ARTCC: CHICAGO CENTER
FSS: KANKAKEE FLIGHT SERVICE STATION
NOTAMs facility: LOT (NOTAM-D service available)
Attendance: 0700-2100
Wind indicator: lighted
Segmented circle: no
Lights: MIRL RY 02/20 & 09/27 PRESET ON LOW INTST; TO INCR INTST ACTVT - CTAF. ACTVT REIL RYS 02/20 & 09/27 & PAPI RYS 02/ 20 & 09/27 - CTAF.
Beacon: white-green (lighted land airport)
Operates sunset to sunrise.

Airport Communications

CTAF/UNICOM: 122.8
WX AWOS-3: 118.525 (815-588-4802)
CHICAGO APPROACH: 119.35
CHICAGO DEPARTURE: 119.35
IC: 119.35
WX AWOS-3 at JOT (6 nm SW): 119.975 (815-730-9560)
WX AWOS-3 at C09 (18 nm SW): 118.175 (815-941-1815)
WX ASOS at MDW (19 nm NE): PHONE 773-884-4424
WX ASOS at DPA (19 nm N): PHONE 630-584-2728
WX ASOS at ARR (20 nm NW): PHONE 630-466-5622

Nearby radio navigation aids

VOR radial/distance  VOR name  Freq  Var
JOTr068/10.6JOLIET VOR/DME112.3002E
DPAr144/20.4DUPAGE VOR/DME108.4002E
CGTr282/24.3CHICAGO HEIGHTS VORTAC114.2002E
EONr324/24.5PEOTONE VORTAC113.2002E
IKKr341/33.9KANKAKEE VOR/DME111.6000E
OBKr192/37.4NORTHBROOK VOR/DME113.0002W

Airport Services

Fuel available: 100LL JET-A
Parking: hangars and tiedowns
Airframe service: MAJOR
Powerplant service: MAJOR
Bottled oxygen: NONE
Bulk oxygen: NONE

Runway Information

Runway 2/20

Dimensions: 6500 x 100 ft. / 1981 x 30 m
Surface: concrete/grooved, in good condition
Weight bearing capacity: 
Double wheel: 99.0
Runway edge lights: medium intensity
RUNWAY 2  RUNWAY 20
Latitude: 41-35.953873N41-36.993583N
Longitude: 088-06.053815W088-05.715330W
Elevation: 679.0 ft.665.9 ft.
Traffic pattern: leftleft
Runway heading: 015 magnetic, 013 true195 magnetic, 193 true
Markings: nonprecision, in good conditionnonprecision, in good condition
Visual slope indicator: 4-light PAPI on left (3.00 degrees glide path)4-light PAPI on left (3.20 degrees glide path)
Runway end identifier lights: yesyes
Touchdown point: yes, no lightsyes, no lights
Instrument approach: LOC/DME

Runway 9/27

Dimensions: 5500 x 75 ft. / 1676 x 23 m
Surface: asphalt/porous friction courses, in good condition
Weight bearing capacity: 
Single wheel: 20.0
Double wheel: 75.0
Runway edge lights: medium intensity
RUNWAY 9  RUNWAY 27
Latitude: 41-36.482153N41-36.518018N
Longitude: 088-06.266618W088-05.060897W
Elevation: 673.1 ft.665.8 ft.
Traffic pattern: leftleft
Runway heading: 090 magnetic, 088 true270 magnetic, 268 true
Markings: nonprecision, in good conditionnonprecision, in good condition
Visual slope indicator: 4-light PAPI on left (3.00 degrees glide path)4-light PAPI on left (3.00 degrees glide path)
Runway end identifier lights: yesyes
Touchdown point: yes, no lightsyes, no lights
Instrument approach: LOC/DME

Airport Ownership and Management from official FAA records

Ownership: Publicly-owned
Owner: JOLIET REGIONAL PORT DIST
#1 EXECUTIVE TERMINAL, GEORGE MICHAS DRIVE
ROMEOVILLE, IL 60446-7175
Phone 815-838-9497
Manager: CHRIS LAWSON
#1 EXECUTVE TERMINAL, GEORGE MICHAS DRIVE
ROMEOVILLE, IL 60446-7175
Phone 815-838-9497
AMGR ADDNL PHONE NUMBER - 815-838-9512.

Airport Operational Statistics

Aircraft based on the field: 140
Single engine airplanes: 116
Multi engine airplanes: 14
Jet airplanes: 7
Helicopters: 3
    
Aircraft operations: avg 285/day *
58% local general aviation
38% transient general aviation
4% air taxi
* for 12-month period ending 01 August 2019

Additional Remarks

N PARKING RAMP CLSD TO ALL MULTI ENGINE ACFT.
BIRDS ON & INVOF ARPT.
CHICAGO APPROACH CLEARANCE 847-289-0926
FOR CD CTC CHICAGO APCH AT 847-289-0926.
TWYS N1 AND N2 CLSD TO FIXED WING ACFT MORE THAN 6000LB.
BA CONDS ARE NOT RPRTD BTN 2100 - 0600.

Instrument Procedures

NOTE: All procedures below are presented as PDF files. If you need a reader for these files, you should download the free Adobe Reader.

NOT FOR NAVIGATION. Please procure official charts for flight.
FAA instrument procedures published for use from 07 November 2019 at 0901Z to 05 December 2019 at 0900Z.

 
IAPs - Instrument Approach Procedures
RNAV (GPS) RWY 02   download (216KB)
RNAV (GPS) RWY 09   download (216KB)
RNAV (GPS) RWY 20   download (178KB)
RNAV (GPS) RWY 27   download (192KB)
LOC/DME RWY 09   download (186KB)
LOC RWY 02   download (228KB)
NOTE: Special Alternate Minimums apply   download (59KB)
 
Departure Procedures
ADELL SIX (RNAV) **CHANGED**   download (199KB)
BLOKR SIX (RNAV) **CHANGED**   download (203KB)
CARYN SIX (RNAV) **CHANGED**   download (178KB)
DARCY SIX (RNAV) **CHANGED**   download (185KB)
ELANR SIX (RNAV) **CHANGED**   download (191KB)
OBENE THREE (RNAV)   2 pages: [1] [2] (328KB)
NOTE: Special Take-Off Minimums/Departure Procedures apply   download (201KB)

Other nearby airports with instrument procedures:

1C5 - Bolingbrook's Clow International Airport (5 nm N)
C09 - Morris Municipal Airport-James R. Washburn Field (18 nm SW)
KMDW - Chicago Midway International Airport (19 nm NE)
KDPA - DuPage Airport (19 nm N)
KARR - Aurora Municipal Airport (20 nm NW)
 
Loc | Ops | Rwys | IFR | FBO | Links
Com | Nav | Svcs | Stats | Notes
Area around KLOT (Lewis University Airport)
 
Road maps at: MapQuest Bing Google
 
Aerial photo
WARNING: Photo may not be current or correct
Aerial photo of KLOT (Lewis University Airport)
Photo taken 27-Jul-2012
looking northeast.

Do you have a better or more recent aerial photo of Lewis University Airport that you would like to share? If so, please send us your photo.

 
Sectional chart

 
Airport distance calculator
Flying to Lewis University Airport? Find the distance to fly.

From to KLOT

Sunrise and sunset
Times for 20-Nov-2019
 Local
(UTC-6)
 Zulu
(UTC)
Morning civil twilight06:1812:18
Sunrise06:4812:48
Sunset16:2822:28
Evening civil twilight16:5822:58

Current date and time
Zulu (UTC)  20-Nov-2019 15:08:57
Local (UTC-6)  20-Nov-2019 09:08:57
 
METAR
KLOT 201455Z AUTO 23005KT 1/4SM FG OVC003 04/04 A3019 RMK AO2 T00350035
KJOT 
6nm SW 
201455Z AUTO 00000KT 1/2SM FG OVC003 04/04 A3019 RMK AO2 T00440044
KC09 
18nm SW 
201455Z AUTO 00000KT 2 1/2SM BR OVC014 04/04 A3019 RMK AO2 T00360035
KMDW 
19nm NE 
201453Z VRB03KT 4SM BR BKN013 OVC037 06/04 A3019 RMK AO2 SLP229 T00560039 51018
KDPA 
20nm N 
201452Z 21005KT 3SM BR BKN004 OVC014 04/03 A3017 RMK AO2 SLP224 T00440033 53012
KARR 
20nm NW 
201452Z 00000KT 2SM BR BKN002 OVC014 03/03 A3018 RMK AO2 SLP227 T00330028 52020
TAF
KMDW 
19nm NE 
201422Z 2014/2118 00000KT 4SM BR SCT009 OVC035 TEMPO 2014/2016 3SM BR OVC009 FM201600 18005KT P6SM SCT020 BKN100 FM202100 16008KT P6SM BKN080 FM210400 16012KT P6SM OVC080 FM211000 18015G23KT 6SM -SHRA OVC025 WS020/20065KT TEMPO 2112/2115 2SM SHRA BR OVC015 FM211600 20018G28KT P6SM VCSH OVC010
KDPA 
20nm N 
201422Z 2014/2112 18005KT 2SM BR SCT004 BKN013 OVC035 TEMPO 2014/2016 3/4SM BR OVC004 FM201700 16006KT P6SM SCT020 BKN100 FM210400 16012KT P6SM OVC080 FM210900 17014G22KT 6SM -SHRA OVC025 WS020/20065KT
NOTAMs
Click for the latest NOTAMs
NOTAMs are issued by the DoD/FAA and will open in a separate window not controlled by AirNav.

 

 
 

FBO, Fuel Providers, and Aircraft Ground Support

  
 Business Name 
 
 Contact 
 
 Services / Description 
 
Fuel Prices
 
Comments
  
Lewis University Airport 815-838-9497
no information available

If you are affiliated with Lewis University Airport and would like to show here your services, contact info, web link, logo, and more, click here
100LL Jet A
FS $5.50 $4.95 
SS $4.95 --- 
 Updated 14-Nov-2019
 
   2 read write
FS=Full service
SS=Self service
Update Fuel Prices
 

Aviation Businesses, Services, and Facilities

  
 Business Name 
 
 Contact 
 
 Services / Description 
 
Distance
 
Comments
  
 Center for Aviation Services at Lewis
312-391-4025
[email]
Aircraft maintenance, Aircraft modifications, Aircraft cleaning / washing / detailing, Aircraft parts

More info about Center for Aviation Services at Lewis
5.5 miles  
   write
 

Would you like to see your business listed on this page?

 If your business provides an interesting product or service to pilots, flight crews, aircraft, or users of the Lewis University Airport, you should consider listing it here.  To start the listing process, click on the button below
 
Add a business
 

Other Pages about Lewis University Airport

www.flylot.com
www.cyberair.com/...
Lewis University
 
Update a link
 
Copyright © AirNav, LLC. All rights reserved. Privacy Policy  Contact